createdAt,value
2019-02-10T00:01:00.604Z,74.78
2019-02-10T00:02:04.921Z,75.16
2019-02-10T00:03:08.551Z,75.56
2019-02-10T00:04:12.247Z,76.09
2019-02-10T00:05:15.963Z,75.89
2019-02-10T00:06:24.630Z,75.46
2019-02-10T00:07:25.034Z,75.10
2019-02-10T00:08:28.736Z,74.88
2019-02-10T00:09:32.347Z,74.91
2019-02-10T00:10:35.983Z,75.21
2019-02-10T00:11:39.751Z,75.38
2019-02-10T00:12:46.376Z,75.42
2019-02-10T00:13:50.012Z,75.41
2019-02-10T00:14:53.676Z,75.43
2019-02-10T00:15:59.382Z,76.01
2019-02-10T00:17:03.238Z,75.74
2019-02-10T00:18:06.941Z,75.67
2019-02-10T00:19:10.573Z,75.85
2019-02-10T00:20:14.264Z,76.12
2019-02-10T00:21:17.893Z,76.06
2019-02-10T00:22:21.921Z,76.17
2019-02-10T00:23:25.578Z,76.19
2019-02-10T00:24:29.419Z,75.99
2019-02-10T00:25:33.082Z,75.70
2019-02-10T00:26:36.721Z,75.43
2019-02-10T00:27:40.356Z,75.20
2019-02-10T00:28:43.985Z,75.08
2019-02-10T00:29:47.619Z,75.45
2019-02-10T00:30:51.551Z,75.77
2019-02-10T00:31:55.260Z,76.09
2019-02-10T00:32:58.976Z,76.25
2019-02-10T00:34:02.615Z,76.15
2019-02-10T00:35:06.253Z,76.22
2019-02-10T00:36:09.916Z,76.44
2019-02-10T00:37:13.549Z,76.36
2019-02-10T00:38:17.199Z,76.16
2019-02-10T00:39:20.829Z,76.02
2019-02-10T00:40:24.463Z,75.92
2019-02-10T00:41:28.522Z,75.82
2019-02-10T00:42:32.230Z,75.80
2019-02-10T00:43:35.937Z,75.72
2019-02-10T00:44:39.571Z,76.25
2019-02-10T00:45:43.274Z,76.23
2019-02-10T00:46:46.949Z,76.41
2019-02-10T00:47:50.582Z,76.53
2019-02-10T00:48:54.153Z,76.76
2019-02-10T00:49:57.721Z,76.94
2019-02-10T00:51:01.362Z,76.99
2019-02-10T00:52:05.034Z,77.02
2019-02-10T00:53:08.668Z,77.00
2019-02-10T00:54:12.322Z,76.92
2019-02-10T00:55:16.035Z,76.61
2019-02-10T00:56:19.732Z,76.31
2019-02-10T00:57:23.332Z,76.00
2019-02-10T00:58:27.010Z,75.56
2019-02-10T00:59:30.652Z,75.42
2019-02-10T01:00:34.544Z,75.87
2019-02-10T01:01:38.186Z,75.95
2019-02-10T01:02:41.853Z,76.07
2019-02-10T01:03:45.348Z,76.11
2019-02-10T01:04:48.985Z,76.57
2019-02-10T01:05:52.722Z,76.83
2019-02-10T01:06:56.356Z,76.83
2019-02-10T01:08:00.027Z,76.69
2019-02-10T01:09:04.841Z,76.48
2019-02-10T01:10:09.740Z,76.20
2019-02-10T01:11:13.743Z,76.18
2019-02-10T01:12:18.568Z,76.35
2019-02-10T01:13:22.245Z,76.49
2019-02-10T01:14:26.257Z,76.42
2019-02-10T01:15:29.896Z,76.44
2019-02-10T01:16:33.534Z,76.62
2019-02-10T01:17:37.174Z,76.87
2019-02-10T01:18:43.755Z,77.09
2019-02-10T01:19:47.391Z,77.60
2019-02-10T01:20:51.021Z,78.06
2019-02-10T01:21:54.674Z,78.03
2019-02-10T01:22:58.665Z,77.93
2019-02-10T01:24:02.336Z,77.75
2019-02-10T01:25:07.769Z,77.62
2019-02-10T01:26:11.430Z,77.49
2019-02-10T01:27:15.056Z,77.20
2019-02-10T01:28:18.691Z,77.04
2019-02-10T01:29:22.368Z,76.82
2019-02-10T01:30:26.105Z,76.40
2019-02-10T01:31:29.734Z,76.55
2019-02-10T01:32:33.370Z,77.05
2019-02-10T01:33:37.380Z,77.43
2019-02-10T01:34:41.016Z,77.63
2019-02-10T01:35:44.651Z,77.52
2019-02-10T01:36:50.040Z,77.44
2019-02-10T01:37:54.042Z,77.34
2019-02-10T01:38:57.747Z,76.93
2019-02-10T01:40:01.434Z,76.63
2019-02-10T01:41:05.118Z,76.40
2019-02-10T01:42:08.831Z,76.14
2019-02-10T01:43:12.471Z,76.12
2019-02-10T01:44:16.035Z,75.79
2019-02-10T01:45:19.700Z,75.62
2019-02-10T01:46:23.355Z,75.47
2019-02-10T01:47:27.079Z,75.68
2019-02-10T01:48:30.723Z,75.91
2019-02-10T01:49:34.295Z,76.37
2019-02-10T01:50:37.967Z,76.61
2019-02-10T01:51:41.669Z,76.83
2019-02-10T01:52:45.294Z,76.83
2019-02-10T01:53:49.283Z,76.56
2019-02-10T01:54:52.930Z,76.39
2019-02-10T01:55:56.580Z,76.51
2019-02-10T01:57:00.215Z,76.41
2019-02-10T01:58:03.859Z,76.17
2019-02-10T01:59:07.505Z,76.07
2019-02-10T02:00:14.143Z,75.76
2019-02-10T02:01:18.511Z,76.05
2019-02-10T02:02:22.167Z,76.73
2019-02-10T02:03:25.795Z,76.60
2019-02-10T02:04:29.437Z,76.94
2019-02-10T02:05:33.076Z,76.99
2019-02-10T02:06:36.735Z,77.16
2019-02-10T02:07:40.376Z,77.32
2019-02-10T02:08:44.022Z,77.40
2019-02-10T02:09:47.915Z,77.26
2019-02-10T02:10:51.556Z,77.05
2019-02-10T02:11:55.229Z,76.89
2019-02-10T02:12:59.256Z,76.70
2019-02-10T02:14:02.984Z,76.50
2019-02-10T02:15:09.531Z,76.39
2019-02-10T02:16:13.166Z,76.28
2019-02-10T02:17:16.771Z,76.79
2019-02-10T02:18:20.321Z,77.05
2019-02-10T02:19:23.953Z,77.25
2019-02-10T02:20:27.704Z,77.63
2019-02-10T02:21:31.342Z,77.87
2019-02-10T02:22:35.020Z,78.08
2019-02-10T02:23:38.587Z,78.17
2019-02-10T02:24:42.211Z,78.22
2019-02-10T02:25:45.918Z,78.21
2019-02-10T02:26:52.352Z,78.20
2019-02-10T02:27:56.011Z,77.88
2019-02-10T02:28:59.580Z,77.42
2019-02-10T02:30:03.668Z,77.08
2019-02-10T02:31:07.303Z,77.49
2019-02-10T02:32:10.936Z,77.64
2019-02-10T02:33:14.578Z,77.85
2019-02-10T02:34:18.147Z,78.05
2019-02-10T02:35:21.781Z,78.27
2019-02-10T02:36:25.432Z,78.23
2019-02-10T02:37:29.001Z,78.33
2019-02-10T02:38:32.737Z,78.51
2019-02-10T02:39:36.388Z,78.51
2019-02-10T02:40:40.022Z,78.13
2019-02-10T02:41:43.512Z,77.75
2019-02-10T02:42:47.081Z,77.35
2019-02-10T02:43:50.752Z,77.05
2019-02-10T02:44:54.384Z,76.79
2019-02-10T02:45:58.032Z,76.52
2019-02-10T02:47:02.019Z,77.00
2019-02-10T02:48:05.663Z,77.33
2019-02-10T02:49:09.323Z,77.61
2019-02-10T02:50:13.021Z,77.85
2019-02-10T02:51:16.727Z,78.15
2019-02-10T02:52:20.358Z,77.79
2019-02-10T02:53:24.040Z,77.84
2019-02-10T02:54:27.699Z,77.97
2019-02-10T02:55:31.339Z,77.77
2019-02-10T02:56:34.910Z,77.57
2019-02-10T02:57:39.071Z,77.41
2019-02-10T02:58:42.712Z,77.16
2019-02-10T02:59:46.443Z,76.94
2019-02-10T03:00:50.152Z,76.48
2019-02-10T03:01:53.865Z,76.02
2019-02-10T03:02:57.944Z,76.07
2019-02-10T03:04:01.657Z,76.19
2019-02-10T03:05:07.442Z,76.63
2019-02-10T03:06:11.070Z,77.07
2019-02-10T03:07:17.979Z,77.37
2019-02-10T03:08:20.016Z,77.83
2019-02-10T03:09:23.656Z,77.75
2019-02-10T03:10:27.321Z,77.93
2019-02-10T03:11:31.387Z,77.79
2019-02-10T03:12:35.093Z,77.77
2019-02-10T03:13:38.836Z,77.54
2019-02-10T03:14:42.504Z,77.31
2019-02-10T03:15:46.530Z,77.10
2019-02-10T03:16:50.084Z,76.97
2019-02-10T03:17:53.808Z,77.12
2019-02-10T03:18:57.447Z,77.49
2019-02-10T03:20:01.087Z,77.67
2019-02-10T03:21:04.777Z,77.46
2019-02-10T03:22:08.422Z,77.34
2019-02-10T03:23:12.061Z,77.49
2019-02-10T03:24:15.701Z,77.69
2019-02-10T03:25:19.343Z,77.81
2019-02-10T03:26:23.366Z,77.98
2019-02-10T03:27:27.005Z,78.00
2019-02-10T03:28:30.677Z,77.81
2019-02-10T03:29:34.288Z,77.62
2019-02-10T03:30:37.855Z,77.52
2019-02-10T03:31:41.533Z,77.39
2019-02-10T03:32:45.251Z,77.40
2019-02-10T03:33:48.961Z,77.26
2019-02-10T03:34:52.788Z,77.53
2019-02-10T03:35:56.488Z,77.94
2019-02-10T03:37:00.169Z,78.23
2019-02-10T03:38:03.808Z,78.47
2019-02-10T03:39:07.469Z,78.53
2019-02-10T03:40:11.787Z,78.39
2019-02-10T03:41:15.377Z,78.38
2019-02-10T03:42:19.438Z,78.29
2019-02-10T03:43:23.088Z,78.17
2019-02-10T03:44:26.843Z,78.02
2019-02-10T03:45:30.509Z,77.72
2019-02-10T03:46:34.220Z,77.40
2019-02-10T03:47:37.957Z,76.99
2019-02-10T03:48:41.488Z,76.63
2019-02-10T03:49:45.138Z,77.21
2019-02-10T03:50:48.776Z,77.71
2019-02-10T03:51:52.487Z,77.66
2019-02-10T03:52:56.228Z,77.54
2019-02-10T03:53:59.941Z,77.72
2019-02-10T03:55:03.849Z,77.84
2019-02-10T03:56:07.564Z,77.94
2019-02-10T03:57:11.203Z,78.25
2019-02-10T03:58:14.965Z,78.20
2019-02-10T03:59:18.620Z,78.12
2019-02-10T04:00:22.257Z,77.94
2019-02-10T04:01:25.927Z,77.72
2019-02-10T04:02:29.541Z,77.83
2019-02-10T04:03:33.282Z,77.71
2019-02-10T04:04:36.999Z,77.42
2019-02-10T04:05:40.634Z,76.83
2019-02-10T04:06:44.354Z,76.80
2019-02-10T04:07:47.996Z,77.01
2019-02-10T04:08:51.677Z,76.98
2019-02-10T04:09:55.516Z,76.91
2019-02-10T04:10:59.160Z,77.03
2019-02-10T04:12:02.801Z,77.11
2019-02-10T04:13:06.514Z,77.31
2019-02-10T04:14:10.194Z,77.68
2019-02-10T04:15:13.826Z,77.74
2019-02-10T04:16:17.447Z,77.56
2019-02-10T04:17:21.086Z,77.24
2019-02-10T04:18:24.815Z,77.00
2019-02-10T04:19:28.491Z,76.89
2019-02-10T04:20:32.206Z,76.73
2019-02-10T04:21:35.853Z,76.57
2019-02-10T04:22:39.436Z,76.69
2019-02-10T04:23:43.076Z,76.76
2019-02-10T04:24:46.756Z,77.17
2019-02-10T04:25:50.392Z,77.35
2019-02-10T04:26:54.375Z,77.67
2019-02-10T04:27:58.013Z,78.24
2019-02-10T04:29:01.665Z,78.55
2019-02-10T04:30:09.179Z,78.52
2019-02-10T04:31:13.285Z,78.73
2019-02-10T04:32:16.992Z,78.73
2019-02-10T04:33:20.702Z,78.53
2019-02-10T04:34:24.777Z,78.30
2019-02-10T04:35:28.413Z,78.34
2019-02-10T04:36:32.048Z,78.63
2019-02-10T04:37:45.005Z,78.28
2019-02-10T04:38:41.055Z,78.23
2019-02-10T04:39:44.833Z,78.31
2019-02-10T04:40:48.590Z,78.50
2019-02-10T04:41:52.298Z,78.79
2019-02-10T04:42:55.875Z,79.25
2019-02-10T04:43:59.538Z,79.70
2019-02-10T04:45:03.155Z,79.92
2019-02-10T04:46:06.836Z,80.01
2019-02-10T04:47:10.481Z,79.86
2019-02-10T04:48:14.126Z,79.92
2019-02-10T04:49:17.771Z,79.97
2019-02-10T04:50:21.412Z,79.78
2019-02-10T04:51:25.094Z,79.40
2019-02-10T04:52:28.734Z,78.94
2019-02-10T04:53:32.381Z,78.54
2019-02-10T04:54:36.014Z,78.04
2019-02-10T04:55:39.655Z,77.59
2019-02-10T04:56:43.544Z,77.45
2019-02-10T04:57:47.180Z,77.69
2019-02-10T04:58:50.769Z,77.95
2019-02-10T04:59:54.406Z,78.14
2019-02-10T05:00:58.051Z,78.81
2019-02-10T05:02:01.730Z,79.11
2019-02-10T05:03:05.402Z,79.00
2019-02-10T05:04:09.052Z,79.33
2019-02-10T05:05:12.691Z,79.51
2019-02-10T05:06:16.333Z,79.83
2019-02-10T05:07:20.017Z,79.96
2019-02-10T05:08:23.941Z,79.87
2019-02-10T05:09:27.652Z,79.44
2019-02-10T05:10:31.293Z,79.12
2019-02-10T05:11:34.937Z,78.93
2019-02-10T05:12:38.608Z,78.84
2019-02-10T05:13:42.248Z,78.57
2019-02-10T05:14:45.952Z,78.21
2019-02-10T05:15:49.596Z,78.64
2019-02-10T05:16:53.169Z,79.09
2019-02-10T05:17:56.788Z,79.13
2019-02-10T05:19:00.422Z,79.32
2019-02-10T05:20:05.472Z,79.47
2019-02-10T05:21:09.105Z,79.60
2019-02-10T05:22:12.737Z,79.79
2019-02-10T05:23:16.406Z,79.87
2019-02-10T05:24:20.044Z,79.94
2019-02-10T05:25:23.689Z,79.89
2019-02-10T05:26:27.320Z,79.74
2019-02-10T05:27:30.974Z,80.23
2019-02-10T05:28:34.644Z,80.54
2019-02-10T05:29:38.247Z,80.52
2019-02-10T05:30:41.818Z,80.13
2019-02-10T05:31:45.460Z,79.91
2019-02-10T05:32:49.033Z,79.61
2019-02-10T05:33:52.720Z,79.44
2019-02-10T05:34:56.360Z,79.17
2019-02-10T05:36:00.410Z,78.75
2019-02-10T05:37:03.986Z,78.99
2019-02-10T05:38:07.622Z,79.27
2019-02-10T05:39:11.298Z,79.09
2019-02-10T05:40:14.994Z,79.40
2019-02-10T05:41:18.650Z,81.80
2019-02-10T05:42:22.489Z,85.02
2019-02-10T05:43:26.137Z,85.70
2019-02-10T05:44:29.739Z,85.40
2019-02-10T05:45:33.378Z,84.65
2019-02-10T05:46:37.445Z,83.10
2019-02-10T05:47:41.089Z,82.86
2019-02-10T05:48:44.654Z,82.21
2019-02-10T05:49:48.327Z,81.62
2019-02-10T05:50:51.971Z,81.29
2019-02-10T05:51:55.545Z,81.38
2019-02-10T05:52:59.208Z,81.23
2019-02-10T05:54:03.158Z,82.00
2019-02-10T05:55:06.846Z,82.30
2019-02-10T05:56:10.483Z,81.58
2019-02-10T05:57:14.198Z,80.94
2019-02-10T05:58:17.838Z,80.21
2019-02-10T05:59:21.474Z,79.75
2019-02-10T06:00:25.410Z,79.50
2019-02-10T06:02:00.218Z,79.69
2019-02-10T06:03:04.247Z,79.77
2019-02-10T06:04:07.913Z,79.99
2019-02-10T06:05:17.854Z,80.05
2019-02-10T06:06:21.508Z,79.83
2019-02-10T06:07:25.152Z,79.66
2019-02-10T06:08:28.803Z,79.87
2019-02-10T06:09:32.430Z,79.94
2019-02-10T06:10:36.005Z,79.64
2019-02-10T06:11:39.672Z,79.25
2019-02-10T06:12:43.313Z,79.20
2019-02-10T06:13:47.025Z,79.23
2019-02-10T06:14:50.997Z,79.27
2019-02-10T06:15:54.638Z,79.20
2019-02-10T06:16:58.238Z,78.75
2019-02-10T06:18:01.797Z,79.31
2019-02-10T06:19:05.780Z,78.91
2019-02-10T06:20:11.124Z,79.05
2019-02-10T06:21:14.771Z,78.46
2019-02-10T06:22:18.377Z,78.26
2019-02-10T06:23:22.022Z,78.48
2019-02-10T06:24:25.778Z,78.56
2019-02-10T06:25:29.418Z,78.49
2019-02-10T06:26:33.049Z,78.31
2019-02-10T06:27:36.808Z,78.47
2019-02-10T06:28:40.980Z,78.63
2019-02-10T06:29:44.682Z,78.70
2019-02-10T06:30:48.315Z,79.06
2019-02-10T06:31:52.026Z,78.65
2019-02-10T06:32:55.733Z,78.07
2019-02-10T06:33:59.437Z,77.84
2019-02-10T06:35:03.195Z,77.59
2019-02-10T06:36:06.777Z,77.16
2019-02-10T06:37:11.890Z,77.21
2019-02-10T06:38:22.427Z,77.44
2019-02-10T06:39:22.461Z,77.72
2019-02-10T06:40:26.278Z,77.81
2019-02-10T06:41:29.983Z,77.74
2019-02-10T06:42:33.654Z,78.08
2019-02-10T06:43:37.574Z,78.04
2019-02-10T06:44:41.212Z,78.09
2019-02-10T06:45:44.856Z,78.16
2019-02-10T06:46:48.569Z,78.46
2019-02-10T06:47:52.209Z,78.39
2019-02-10T06:48:56.255Z,78.34
2019-02-10T06:49:59.901Z,78.22
2019-02-10T06:51:03.553Z,78.39
2019-02-10T06:52:07.290Z,78.58
2019-02-10T06:53:10.993Z,78.64
2019-02-10T06:54:15.055Z,78.23
2019-02-10T06:55:18.677Z,78.59
2019-02-10T06:56:22.394Z,78.40
2019-02-10T06:57:26.033Z,78.26
2019-02-10T06:58:29.597Z,78.03
2019-02-10T06:59:47.040Z,78.03
2019-02-10T07:00:52.324Z,77.91
2019-02-10T07:01:57.652Z,77.78
2019-02-10T07:03:28.462Z,77.54
2019-02-10T07:04:32.187Z,77.71
2019-02-10T07:05:35.938Z,78.27
2019-02-10T07:06:39.648Z,79.51
2019-02-10T07:07:43.301Z,77.56
2019-02-10T07:08:46.998Z,76.88
2019-02-10T07:09:50.710Z,76.71
2019-02-10T07:10:54.426Z,76.07
2019-02-10T07:11:58.032Z,75.95
2019-02-10T07:13:01.753Z,75.94
2019-02-10T07:14:06.015Z,75.82
2019-02-10T07:15:29.189Z,75.71
2019-02-10T07:16:38.884Z,75.43
2019-02-10T07:17:44.951Z,75.66
2019-02-10T07:19:24.947Z,75.59
2019-02-10T07:20:41.600Z,75.79
2019-02-10T07:21:45.283Z,75.42
2019-02-10T07:22:51.904Z,75.12
2019-02-10T07:24:01.649Z,74.91
2019-02-10T07:25:17.226Z,74.51
2019-02-10T07:26:23.910Z,74.16
2019-02-10T07:27:28.393Z,73.93
2019-02-10T07:28:39.700Z,73.40
2019-02-10T07:29:46.318Z,73.23
2019-02-10T07:30:55.498Z,74.26
2019-02-10T07:31:59.201Z,73.73
2019-02-10T07:33:05.145Z,73.04
2019-02-10T07:34:17.905Z,73.05
2019-02-10T07:35:35.777Z,71.19
2019-02-10T07:36:42.461Z,69.76
2019-02-10T07:37:55.342Z,69.62
2019-02-10T07:39:09.488Z,69.03
2019-02-10T07:40:28.250Z,69.24
2019-02-10T07:41:46.564Z,68.32
2019-02-10T07:43:09.657Z,68.92
2019-02-10T07:44:28.478Z,70.37
2019-02-10T07:45:46.429Z,69.31
2019-02-10T07:47:17.432Z,69.44
2019-02-10T07:48:26.659Z,67.50
2019-02-10T07:50:05.391Z,66.19
2019-02-10T07:51:17.648Z,68.42
2019-02-10T07:52:24.305Z,67.08
2019-02-10T07:53:43.068Z,65.83
2019-02-10T07:54:49.628Z,64.82
2019-02-10T07:56:16.045Z,65.64
2019-02-10T07:57:25.445Z,65.65
2019-02-10T07:58:34.772Z,65.45
2019-02-10T07:59:47.262Z,64.22
2019-02-10T08:00:53.820Z,64.16
2019-02-10T08:02:23.920Z,64.47
2019-02-10T08:03:36.574Z,63.61
2019-02-10T08:04:43.134Z,62.47
2019-02-10T08:05:52.569Z,61.28
2019-02-10T08:07:09.246Z,61.15
2019-02-10T08:08:31.220Z,61.43
2019-02-10T08:09:46.487Z,61.94
2019-02-10T08:11:04.979Z,61.36
2019-02-10T08:12:31.274Z,60.50
2019-02-10T08:13:47.105Z,59.67
2019-02-10T08:14:59.312Z,60.60
2019-02-10T08:16:09.375Z,60.16
2019-02-10T08:17:37.031Z,61.50
2019-02-10T08:18:46.676Z,58.83
2019-02-10T08:19:53.391Z,58.09
2019-02-10T08:20:59.950Z,58.53
2019-02-10T08:22:06.475Z,57.32
2019-02-10T08:23:18.610Z,57.05
2019-02-10T08:24:25.243Z,57.58
2019-02-10T08:25:40.835Z,56.65
2019-02-10T08:26:50.421Z,54.31
2019-02-10T08:28:03.001Z,54.13
2019-02-10T08:29:24.766Z,53.07
2019-02-10T08:30:52.164Z,53.14
2019-02-10T08:32:23.113Z,52.79
2019-02-10T08:33:29.677Z,54.10
2019-02-10T08:35:02.045Z,51.89
2019-02-10T08:36:20.631Z,51.32
2019-02-10T08:37:42.028Z,52.11
2019-02-10T08:39:04.005Z,51.51
2019-02-10T08:40:22.664Z,50.64
2019-02-10T08:41:35.138Z,50.07
2019-02-10T08:43:02.470Z,50.88
2019-02-10T08:44:15.074Z,50.14
2019-02-10T08:45:24.524Z,50.71
2019-02-10T08:46:37.051Z,48.35
2019-02-10T08:47:49.288Z,47.94
2019-02-10T08:49:01.749Z,47.90
2019-02-10T08:50:20.422Z,48.39
2019-02-10T08:51:39.222Z,48.85
2019-02-10T08:52:54.732Z,48.54
2019-02-10T08:53:58.476Z,49.10
2019-02-10T08:55:02.515Z,49.55
2019-02-10T08:56:06.310Z,48.37
2019-02-10T08:57:10.403Z,47.80
2019-02-10T08:58:14.206Z,46.89
2019-02-10T08:59:17.847Z,46.69
2019-02-10T09:00:21.495Z,46.40
2019-02-10T09:01:25.062Z,46.47
2019-02-10T09:02:28.729Z,46.11
2019-02-10T09:03:32.443Z,45.95
2019-02-10T09:04:36.084Z,44.63
2019-02-10T09:05:39.717Z,44.86
2019-02-10T09:06:43.448Z,44.32
2019-02-10T09:07:47.119Z,44.38
2019-02-10T09:08:50.776Z,44.34
2019-02-10T09:09:54.426Z,43.48
2019-02-10T09:10:58.132Z,43.48
2019-02-10T09:12:01.770Z,45.04
2019-02-10T09:13:05.519Z,44.87
2019-02-10T09:14:09.184Z,44.77
2019-02-10T09:15:13.181Z,44.57
2019-02-10T09:16:16.821Z,44.57
2019-02-10T09:17:20.477Z,44.45
2019-02-10T09:18:24.221Z,44.26
2019-02-10T09:19:27.940Z,44.43
2019-02-10T09:20:31.588Z,42.66
2019-02-10T09:21:35.358Z,42.82
2019-02-10T09:22:39.462Z,42.82
2019-02-10T09:23:43.479Z,41.80
2019-02-10T09:24:47.062Z,41.67
2019-02-10T09:25:50.707Z,42.33
2019-02-10T09:26:54.357Z,42.33
2019-02-10T09:27:58.002Z,42.53
2019-02-10T09:29:01.604Z,43.66
2019-02-10T09:30:08.719Z,42.04
2019-02-10T09:31:12.368Z,42.07
2019-02-10T09:32:16.089Z,41.19
2019-02-10T09:33:19.788Z,41.19
2019-02-10T09:34:23.543Z,41.21
2019-02-10T09:35:27.267Z,40.08
2019-02-10T09:36:30.769Z,39.15
2019-02-10T09:37:34.485Z,39.32
2019-02-10T09:38:38.135Z,39.98
2019-02-10T09:39:41.805Z,41.02
2019-02-10T09:40:45.468Z,41.61
2019-02-10T09:41:49.120Z,41.41
2019-02-10T09:42:53.293Z,39.57
2019-02-10T09:43:59.189Z,39.58
2019-02-10T09:45:02.875Z,40.15
2019-02-10T09:46:06.515Z,39.96
2019-02-10T09:47:11.781Z,40.86
2019-02-10T09:48:15.599Z,41.26
2019-02-10T09:49:19.303Z,41.12
2019-02-10T09:50:23.075Z,39.55
2019-02-10T09:51:27.116Z,39.41
2019-02-10T09:52:30.847Z,40.23
2019-02-10T09:53:34.534Z,37.52
2019-02-10T09:54:38.239Z,37.52
2019-02-10T09:55:42.266Z,38.76
2019-02-10T09:56:45.896Z,37.20
2019-02-10T09:57:49.646Z,37.62
2019-02-10T09:58:53.339Z,36.13
2019-02-10T09:59:57.114Z,35.58
2019-02-10T10:01:00.799Z,35.94
2019-02-10T10:02:04.497Z,35.71
2019-02-10T10:03:08.262Z,35.07
2019-02-10T10:04:11.898Z,34.85
2019-02-10T10:05:15.552Z,36.68
2019-02-10T10:06:19.197Z,35.85
2019-02-10T10:07:22.891Z,33.77
2019-02-10T10:08:26.610Z,34.74
2019-02-10T10:09:30.247Z,34.46
2019-02-10T10:10:34.278Z,34.49
2019-02-10T10:11:37.979Z,34.38
2019-02-10T10:12:41.628Z,35.05
2019-02-10T10:13:45.296Z,34.53
2019-02-10T10:14:48.930Z,33.50
2019-02-10T10:15:52.709Z,33.41
2019-02-10T10:16:56.533Z,34.47
2019-02-10T10:18:00.154Z,34.14
2019-02-10T10:19:03.831Z,33.89
2019-02-10T10:20:10.675Z,32.81
2019-02-10T10:21:14.421Z,32.85
2019-02-10T10:22:18.083Z,32.78
2019-02-10T10:23:21.740Z,32.41
2019-02-10T10:24:25.533Z,32.03
2019-02-10T10:25:29.183Z,32.78
2019-02-10T10:26:32.892Z,32.98
2019-02-10T10:27:36.665Z,34.92
2019-02-10T10:28:40.328Z,35.40
2019-02-10T10:29:43.997Z,35.68
2019-02-10T10:30:47.699Z,36.23
2019-02-10T10:31:51.413Z,36.46
2019-02-10T10:32:55.247Z,36.78
2019-02-10T10:33:58.949Z,36.87
2019-02-10T10:35:02.648Z,38.58
2019-02-10T10:36:06.300Z,39.50
2019-02-10T10:37:10.060Z,39.08
2019-02-10T10:38:13.625Z,38.01
2019-02-10T10:39:17.370Z,38.61
2019-02-10T10:40:21.111Z,36.79
2019-02-10T10:41:24.849Z,37.80
2019-02-10T10:42:28.617Z,36.62
2019-02-10T10:43:32.241Z,36.97
2019-02-10T10:44:36.367Z,36.60
2019-02-10T10:45:40.217Z,36.87
2019-02-10T10:46:43.978Z,36.52
2019-02-10T10:47:47.677Z,37.03
2019-02-10T10:48:51.347Z,38.09
2019-02-10T10:49:55.446Z,37.34
2019-02-10T10:50:59.560Z,37.34
2019-02-10T10:52:03.281Z,36.49
2019-02-10T10:53:06.988Z,36.34
2019-02-10T10:54:10.760Z,36.28
2019-02-10T10:55:14.608Z,36.72
2019-02-10T10:56:18.368Z,35.36
2019-02-10T10:57:22.151Z,34.15
2019-02-10T10:58:25.788Z,34.20
2019-02-10T10:59:29.559Z,33.10
2019-02-10T11:00:33.276Z,32.55
2019-02-10T11:01:37.284Z,34.39
2019-02-10T11:02:41.062Z,32.48
2019-02-10T11:03:44.763Z,32.19
2019-02-10T11:04:48.810Z,31.63
2019-02-10T11:05:52.520Z,31.02
2019-02-10T11:06:56.224Z,29.91
2019-02-10T11:08:00.540Z,29.86
2019-02-10T11:09:05.130Z,30.36
2019-02-10T11:10:12.991Z,29.61
2019-02-10T11:11:16.738Z,29.57
2019-02-10T11:12:20.445Z,29.38
2019-02-10T11:13:24.239Z,29.00
2019-02-10T11:14:28.050Z,28.49
2019-02-10T11:15:31.713Z,27.30
2019-02-10T11:16:36.446Z,27.28
2019-02-10T11:17:40.438Z,26.94
2019-02-10T11:18:44.116Z,26.94
2019-02-10T11:19:47.802Z,27.30
2019-02-10T11:20:53.025Z,27.42
2019-02-10T11:21:56.710Z,27.06
2019-02-10T11:23:00.863Z,27.44
2019-02-10T11:24:04.601Z,27.13
2019-02-10T11:25:10.789Z,27.28
2019-02-10T11:26:14.475Z,27.27
2019-02-10T11:27:18.132Z,27.41
2019-02-10T11:28:21.853Z,27.44
2019-02-10T11:29:25.619Z,26.83
2019-02-10T11:30:29.230Z,26.45
2019-02-10T11:31:32.867Z,26.48
2019-02-10T11:32:36.528Z,26.11
2019-02-10T11:33:40.226Z,25.00
2019-02-10T11:34:46.159Z,24.21
2019-02-10T11:35:49.262Z,25.74
2019-02-10T11:36:52.913Z,25.42
2019-02-10T11:37:56.672Z,25.35
2019-02-10T11:39:00.346Z,26.50
2019-02-10T11:40:05.409Z,26.52
2019-02-10T11:41:09.435Z,26.50
2019-02-10T11:42:13.394Z,27.16
2019-02-10T11:43:17.170Z,26.55
2019-02-10T11:44:20.735Z,26.06
2019-02-10T11:45:25.049Z,25.43
2019-02-10T11:46:28.699Z,26.11
2019-02-10T11:47:32.345Z,26.58
2019-02-10T11:48:36.996Z,26.28
2019-02-10T11:49:40.763Z,25.92
2019-02-10T11:50:44.508Z,25.67
2019-02-10T11:51:48.233Z,26.30
2019-02-10T11:52:51.869Z,26.05
2019-02-10T11:54:01.372Z,25.75
2019-02-10T11:55:06.719Z,25.44
2019-02-10T11:56:10.481Z,27.29
2019-02-10T11:57:14.190Z,27.32
2019-02-10T11:58:17.828Z,26.26
2019-02-10T11:59:21.470Z,26.17
2019-02-10T12:00:25.118Z,26.00
2019-02-10T12:01:29.356Z,26.06
2019-02-10T12:02:38.060Z,24.92
2019-02-10T12:03:38.372Z,25.30
2019-02-10T12:04:42.018Z,25.13
2019-02-10T12:05:46.020Z,25.23
2019-02-10T12:06:49.780Z,24.73
2019-02-10T12:07:53.429Z,24.30
2019-02-10T12:08:57.066Z,24.58
2019-02-10T12:10:00.776Z,25.54
2019-02-10T12:11:04.454Z,25.73
2019-02-10T12:12:08.192Z,25.03
2019-02-10T12:13:11.905Z,24.29
2019-02-10T12:14:15.572Z,24.11
2019-02-10T12:15:19.218Z,24.39
2019-02-10T12:16:22.859Z,24.37
2019-02-10T12:17:26.505Z,25.19
2019-02-10T12:18:30.146Z,25.94
2019-02-10T12:19:33.825Z,25.59
2019-02-10T12:20:37.462Z,26.74
2019-02-10T12:21:41.026Z,26.78
2019-02-10T12:22:49.990Z,25.62
2019-02-10T12:23:50.042Z,25.11
2019-02-10T12:24:53.722Z,25.21
2019-02-10T12:25:57.362Z,26.30
2019-02-10T12:27:01.446Z,26.48
2019-02-10T12:28:05.094Z,25.14
2019-02-10T12:29:08.910Z,25.24
2019-02-10T12:30:16.663Z,25.84
2019-02-10T12:31:20.309Z,25.76
2019-02-10T12:32:23.952Z,25.32
2019-02-10T12:33:28.005Z,24.92
2019-02-10T12:34:31.663Z,24.43
2019-02-10T12:35:35.317Z,24.60
2019-02-10T12:36:38.956Z,23.96
2019-02-10T12:37:48.011Z,24.16
2019-02-10T12:38:51.846Z,24.56
2019-02-10T12:39:59.752Z,24.50
2019-02-10T12:41:00.998Z,24.37
2019-02-10T12:42:04.775Z,25.78
2019-02-10T12:43:09.114Z,25.12
2019-02-10T12:44:12.911Z,24.49
2019-02-10T12:45:16.619Z,24.91
2019-02-10T12:46:20.353Z,24.96
2019-02-10T12:47:23.989Z,24.40
2019-02-10T12:48:34.589Z,24.78
2019-02-10T12:49:38.266Z,24.71
2019-02-10T12:50:41.962Z,26.32
2019-02-10T12:51:46.568Z,25.31
2019-02-10T12:52:50.274Z,24.85
2019-02-10T12:53:54.320Z,25.51
2019-02-10T12:54:58.053Z,24.69
2019-02-10T12:56:01.788Z,24.60
2019-02-10T12:57:05.563Z,25.79
2019-02-10T12:58:09.338Z,25.97
2019-02-10T12:59:13.059Z,26.70
2019-02-10T13:00:20.638Z,26.99
2019-02-10T13:01:24.290Z,27.61
2019-02-10T13:02:28.029Z,26.38
2019-02-10T13:03:31.621Z,26.88
2019-02-10T13:04:35.339Z,25.50
2019-02-10T13:05:38.971Z,25.74
2019-02-10T13:06:42.762Z,25.58
2019-02-10T13:07:46.402Z,25.68
2019-02-10T13:08:50.192Z,27.28
2019-02-10T13:09:53.897Z,26.57
2019-02-10T13:10:57.532Z,26.45
2019-02-10T13:12:01.649Z,26.20
2019-02-10T13:13:05.409Z,25.93
2019-02-10T13:14:09.037Z,25.20
2019-02-10T13:15:13.693Z,26.28
2019-02-10T13:16:17.426Z,25.15
2019-02-10T13:17:21.012Z,24.79
2019-02-10T13:18:24.761Z,24.84
2019-02-10T13:19:28.466Z,24.55
2019-02-10T13:20:32.190Z,25.13
2019-02-10T13:21:35.828Z,24.60
2019-02-10T13:22:39.470Z,25.23
2019-02-10T13:23:43.219Z,25.59
2019-02-10T13:24:46.929Z,23.84
2019-02-10T13:25:50.707Z,23.48
2019-02-10T13:26:54.364Z,23.60
2019-02-10T13:27:58.008Z,23.26
2019-02-10T13:29:01.699Z,23.36
2019-02-10T13:30:08.253Z,23.33
2019-02-10T13:31:11.970Z,25.74
2019-02-10T13:32:15.676Z,24.66
2019-02-10T13:33:19.706Z,25.31
2019-02-10T13:34:23.381Z,26.42
2019-02-10T13:35:27.017Z,24.82
2019-02-10T13:36:30.734Z,26.21
2019-02-10T13:37:34.464Z,24.99
2019-02-10T13:38:38.233Z,25.69
2019-02-10T13:39:41.902Z,26.20
2019-02-10T13:40:45.616Z,24.98
2019-02-10T13:41:47.974Z,24.35
2019-02-10T13:42:51.612Z,24.84
2019-02-10T13:43:55.181Z,24.04
2019-02-10T13:44:59.188Z,24.37
2019-02-10T13:46:02.991Z,23.69
2019-02-10T13:47:06.676Z,24.59
2019-02-10T13:48:10.832Z,24.64
2019-02-10T13:49:14.446Z,24.27
2019-02-10T13:50:19.099Z,24.81
2019-02-10T13:51:22.836Z,23.99
2019-02-10T13:52:28.445Z,23.85
2019-02-10T13:53:32.367Z,23.53
2019-02-10T13:54:36.053Z,25.47
2019-02-10T13:55:39.958Z,23.90
2019-02-10T13:56:43.733Z,23.57
2019-02-10T13:57:47.811Z,24.50
2019-02-10T13:58:51.531Z,25.46